sensor_id;sensor_type;location;lat;lon;timestamp;temperature;humidity
30678;DHT22;73746;47.466;8.992;2024-02-28T00:02:31;6.90;99.90
30678;DHT22;73746;47.466;8.992;2024-02-28T00:05:04;6.90;99.90
30678;DHT22;73746;47.466;8.992;2024-02-28T00:07:35;6.90;99.90
30678;DHT22;73746;47.466;8.992;2024-02-28T00:10:08;6.90;99.90
30678;DHT22;73746;47.466;8.992;2024-02-28T00:12:40;7.00;99.90
30678;DHT22;73746;47.466;8.992;2024-02-28T00:15:12;7.00;99.90
30678;DHT22;73746;47.466;8.992;2024-02-28T00:17:44;6.90;99.90
30678;DHT22;73746;47.466;8.992;2024-02-28T00:20:16;6.90;99.90
30678;DHT22;73746;47.466;8.992;2024-02-28T00:22:49;6.90;99.90
30678;DHT22;73746;47.466;8.992;2024-02-28T00:25:20;6.90;99.90
30678;DHT22;73746;47.466;8.992;2024-02-28T00:27:54;6.90;99.90
30678;DHT22;73746;47.466;8.992;2024-02-28T00:30:26;6.80;99.90
30678;DHT22;73746;47.466;8.992;2024-02-28T00:32:59;6.80;99.90
30678;DHT22;73746;47.466;8.992;2024-02-28T00:35:32;6.80;99.90
30678;DHT22;73746;47.466;8.992;2024-02-28T00:38:04;6.80;99.90
30678;DHT22;73746;47.466;8.992;2024-02-28T00:40:36;6.70;99.90
30678;DHT22;73746;47.466;8.992;2024-02-28T00:43:08;6.70;99.90
30678;DHT22;73746;47.466;8.992;2024-02-28T00:45:40;6.80;99.90
30678;DHT22;73746;47.466;8.992;2024-02-28T00:48:12;6.80;99.90
30678;DHT22;73746;47.466;8.992;2024-02-28T00:50:43;6.70;99.90
30678;DHT22;73746;47.466;8.992;2024-02-28T00:53:15;6.70;99.90
30678;DHT22;73746;47.466;8.992;2024-02-28T00:55:47;6.70;99.90
30678;DHT22;73746;47.466;8.992;2024-02-28T00:58:19;6.70;99.90
30678;DHT22;73746;47.466;8.992;2024-02-28T01:00:50;6.80;99.90
30678;DHT22;73746;47.466;8.992;2024-02-28T01:03:22;6.80;99.90
30678;DHT22;73746;47.466;8.992;2024-02-28T01:05:54;6.80;99.90
30678;DHT22;73746;47.466;8.992;2024-02-28T01:08:26;6.80;99.90
30678;DHT22;73746;47.466;8.992;2024-02-28T01:10:58;6.80;99.90
30678;DHT22;73746;47.466;8.992;2024-02-28T01:13:30;6.80;99.90
30678;DHT22;73746;47.466;8.992;2024-02-28T01:16:02;6.80;99.90
30678;DHT22;73746;47.466;8.992;2024-02-28T01:18:34;6.70;99.90
30678;DHT22;73746;47.466;8.992;2024-02-28T01:21:07;6.70;99.90
30678;DHT22;73746;47.466;8.992;2024-02-28T01:23:38;6.70;99.90
30678;DHT22;73746;47.466;8.992;2024-02-28T01:26:10;6.70;99.90
30678;DHT22;73746;47.466;8.992;2024-02-28T01:28:42;6.70;99.90
30678;DHT22;73746;47.466;8.992;2024-02-28T01:31:14;6.70;99.90
30678;DHT22;73746;47.466;8.992;2024-02-28T01:33:46;6.60;99.90
30678;DHT22;73746;47.466;8.992;2024-02-28T01:36:18;6.60;99.90
30678;DHT22;73746;47.466;8.992;2024-02-28T01:38:51;6.70;99.90
30678;DHT22;73746;47.466;8.992;2024-02-28T01:41:23;6.70;99.90
30678;DHT22;73746;47.466;8.992;2024-02-28T01:43:55;6.70;99.90
30678;DHT22;73746;47.466;8.992;2024-02-28T01:46:27;6.70;99.90
30678;DHT22;73746;47.466;8.992;2024-02-28T01:49:00;6.70;99.90
30678;DHT22;73746;47.466;8.992;2024-02-28T01:51:33;6.70;99.90
30678;DHT22;73746;47.466;8.992;2024-02-28T01:54:05;6.70;99.90
30678;DHT22;73746;47.466;8.992;2024-02-28T01:56:37;6.70;99.90
30678;DHT22;73746;47.466;8.992;2024-02-28T01:59:10;6.70;99.90
30678;DHT22;73746;47.466;8.992;2024-02-28T02:01:43;6.70;99.90
30678;DHT22;73746;47.466;8.992;2024-02-28T02:04:15;6.70;99.90
30678;DHT22;73746;47.466;8.992;2024-02-28T02:06:48;6.70;99.90
30678;DHT22;73746;47.466;8.992;2024-02-28T02:09:21;6.70;99.90
30678;DHT22;73746;47.466;8.992;2024-02-28T02:11:55;6.70;99.90
30678;DHT22;73746;47.466;8.992;2024-02-28T02:14:26;6.70;99.90
30678;DHT22;73746;47.466;8.992;2024-02-28T02:16:59;6.70;99.90
30678;DHT22;73746;47.466;8.992;2024-02-28T02:19:30;6.70;99.90
30678;DHT22;73746;47.466;8.992;2024-02-28T02:22:04;6.70;99.90
30678;DHT22;73746;47.466;8.992;2024-02-28T02:24:36;6.70;99.90
30678;DHT22;73746;47.466;8.992;2024-02-28T02:27:08;6.80;99.90
30678;DHT22;73746;47.466;8.992;2024-02-28T02:29:40;6.70;99.90
30678;DHT22;73746;47.466;8.992;2024-02-28T02:32:12;6.80;99.90
30678;DHT22;73746;47.466;8.992;2024-02-28T02:34:44;6.80;99.90
30678;DHT22;73746;47.466;8.992;2024-02-28T02:37:16;6.80;99.90
30678;DHT22;73746;47.466;8.992;2024-02-28T02:39:48;6.80;99.90
30678;DHT22;73746;47.466;8.992;2024-02-28T02:42:20;6.80;99.90
30678;DHT22;73746;47.466;8.992;2024-02-28T02:44:52;6.80;99.90
30678;DHT22;73746;47.466;8.992;2024-02-28T02:47:23;6.80;99.90
30678;DHT22;73746;47.466;8.992;2024-02-28T02:49:55;6.80;99.90
30678;DHT22;73746;47.466;8.992;2024-02-28T02:52:27;6.80;99.90
30678;DHT22;73746;47.466;8.992;2024-02-28T02:54:58;6.80;99.90
30678;DHT22;73746;47.466;8.992;2024-02-28T02:57:31;6.80;99.90
30678;DHT22;73746;47.466;8.992;2024-02-28T03:00:03;6.80;99.90
30678;DHT22;73746;47.466;8.992;2024-02-28T03:02:36;6.80;99.90
30678;DHT22;73746;47.466;8.992;2024-02-28T03:05:10;6.80;99.90
30678;DHT22;73746;47.466;8.992;2024-02-28T03:07:42;6.80;99.90
30678;DHT22;73746;47.466;8.992;2024-02-28T03:10:13;6.80;99.90
30678;DHT22;73746;47.466;8.992;2024-02-28T03:12:45;6.80;99.90
30678;DHT22;73746;47.466;8.992;2024-02-28T03:15:17;6.80;99.90
30678;DHT22;73746;47.466;8.992;2024-02-28T03:17:49;6.80;99.90
30678;DHT22;73746;47.466;8.992;2024-02-28T03:20:21;6.80;99.90
30678;DHT22;73746;47.466;8.992;2024-02-28T03:22:52;6.80;99.90
30678;DHT22;73746;47.466;8.992;2024-02-28T03:25:24;6.80;99.90
30678;DHT22;73746;47.466;8.992;2024-02-28T03:27:56;6.70;99.90
30678;DHT22;73746;47.466;8.992;2024-02-28T03:30:28;6.70;99.90
30678;DHT22;73746;47.466;8.992;2024-02-28T03:33:00;6.70;99.90
30678;DHT22;73746;47.466;8.992;2024-02-28T03:35:31;6.70;99.90
30678;DHT22;73746;47.466;8.992;2024-02-28T03:38:03;6.70;99.90
30678;DHT22;73746;47.466;8.992;2024-02-28T03:40:35;6.70;99.90
30678;DHT22;73746;47.466;8.992;2024-02-28T03:43:07;6.80;99.90
30678;DHT22;73746;47.466;8.992;2024-02-28T03:45:39;6.70;99.90
30678;DHT22;73746;47.466;8.992;2024-02-28T03:48:11;6.80;99.90
30678;DHT22;73746;47.466;8.992;2024-02-28T03:50:42;6.90;99.90
30678;DHT22;73746;47.466;8.992;2024-02-28T03:53:14;6.90;99.90
30678;DHT22;73746;47.466;8.992;2024-02-28T03:55:46;6.90;99.90
30678;DHT22;73746;47.466;8.992;2024-02-28T03:58:18;6.90;99.90
30678;DHT22;73746;47.466;8.992;2024-02-28T04:00:50;6.90;99.90
30678;DHT22;73746;47.466;8.992;2024-02-28T04:03:21;6.90;99.90
30678;DHT22;73746;47.466;8.992;2024-02-28T04:05:53;6.80;99.90
30678;DHT22;73746;47.466;8.992;2024-02-28T04:08:25;6.80;99.90
30678;DHT22;73746;47.466;8.992;2024-02-28T04:10:57;6.90;99.90
30678;DHT22;73746;47.466;8.992;2024-02-28T04:13:28;6.90;99.90
30678;DHT22;73746;47.466;8.992;2024-02-28T04:16:00;6.90;99.90
30678;DHT22;73746;47.466;8.992;2024-02-28T04:18:34;6.90;99.90
30678;DHT22;73746;47.466;8.992;2024-02-28T04:21:05;7.00;99.90
30678;DHT22;73746;47.466;8.992;2024-02-28T04:23:37;7.00;99.90
30678;DHT22;73746;47.466;8.992;2024-02-28T04:26:09;7.10;99.90
30678;DHT22;73746;47.466;8.992;2024-02-28T04:28:42;7.10;99.90
30678;DHT22;73746;47.466;8.992;2024-02-28T04:31:14;7.10;99.90
30678;DHT22;73746;47.466;8.992;2024-02-28T04:33:45;7.10;99.90
30678;DHT22;73746;47.466;8.992;2024-02-28T04:36:17;7.20;99.90
30678;DHT22;73746;47.466;8.992;2024-02-28T04:38:49;7.20;99.90
30678;DHT22;73746;47.466;8.992;2024-02-28T04:41:21;7.10;99.90
30678;DHT22;73746;47.466;8.992;2024-02-28T04:43:56;7.10;99.90
30678;DHT22;73746;47.466;8.992;2024-02-28T04:46:28;7.10;99.90
30678;DHT22;73746;47.466;8.992;2024-02-28T04:49:00;7.00;99.90
30678;DHT22;73746;47.466;8.992;2024-02-28T04:51:32;7.10;99.90
30678;DHT22;73746;47.466;8.992;2024-02-28T04:54:04;7.00;99.90
30678;DHT22;73746;47.466;8.992;2024-02-28T04:56:39;7.00;99.90
30678;DHT22;73746;47.466;8.992;2024-02-28T04:59:12;7.00;99.90
30678;DHT22;73746;47.466;8.992;2024-02-28T05:01:44;7.00;99.90
30678;DHT22;73746;47.466;8.992;2024-02-28T05:04:16;7.00;99.90
30678;DHT22;73746;47.466;8.992;2024-02-28T05:06:48;7.00;99.90
30678;DHT22;73746;47.466;8.992;2024-02-28T05:09:20;7.00;99.90
30678;DHT22;73746;47.466;8.992;2024-02-28T05:11:52;7.00;99.90
30678;DHT22;73746;47.466;8.992;2024-02-28T05:14:24;7.00;99.90
30678;DHT22;73746;47.466;8.992;2024-02-28T05:16:56;6.90;99.90
30678;DHT22;73746;47.466;8.992;2024-02-28T05:19:27;6.90;99.90
30678;DHT22;73746;47.466;8.992;2024-02-28T05:21:59;7.00;99.90
30678;DHT22;73746;47.466;8.992;2024-02-28T05:24:32;7.00;99.90
30678;DHT22;73746;47.466;8.992;2024-02-28T05:27:04;7.00;99.90
30678;DHT22;73746;47.466;8.992;2024-02-28T05:29:36;7.00;99.90
30678;DHT22;73746;47.466;8.992;2024-02-28T05:32:08;7.00;99.90
30678;DHT22;73746;47.466;8.992;2024-02-28T05:34:40;7.10;99.90
30678;DHT22;73746;47.466;8.992;2024-02-28T05:37:31;7.00;99.90
30678;DHT22;73746;47.466;8.992;2024-02-28T05:45:29;7.10;99.90
30678;DHT22;73746;47.466;8.992;2024-02-28T05:48:01;7.10;99.90
30678;DHT22;73746;47.466;8.992;2024-02-28T05:50:53;7.10;99.90
30678;DHT22;73746;47.466;8.992;2024-02-28T05:53:25;7.20;99.90
30678;DHT22;73746;47.466;8.992;2024-02-28T05:55:57;7.20;99.90
30678;DHT22;73746;47.466;8.992;2024-02-28T05:58:29;7.20;99.90
30678;DHT22;73746;47.466;8.992;2024-02-28T06:01:01;7.10;99.90
30678;DHT22;73746;47.466;8.992;2024-02-28T06:03:33;7.10;99.90
30678;DHT22;73746;47.466;8.992;2024-02-28T06:06:05;7.10;99.90
30678;DHT22;73746;47.466;8.992;2024-02-28T06:08:39;7.10;99.90
30678;DHT22;73746;47.466;8.992;2024-02-28T06:11:11;7.00;99.90
30678;DHT22;73746;47.466;8.992;2024-02-28T06:13:43;6.90;99.90
30678;DHT22;73746;47.466;8.992;2024-02-28T06:17:21;7.00;99.90
30678;DHT22;73746;47.466;8.992;2024-02-28T06:22:35;7.00;99.90
30678;DHT22;73746;47.466;8.992;2024-02-28T06:25:08;7.10;99.90
30678;DHT22;73746;47.466;8.992;2024-02-28T06:27:42;7.10;99.90
30678;DHT22;73746;47.466;8.992;2024-02-28T06:30:15;7.10;99.90
30678;DHT22;73746;47.466;8.992;2024-02-28T06:33:06;7.20;99.90
30678;DHT22;73746;47.466;8.992;2024-02-28T06:35:39;7.20;99.90
30678;DHT22;73746;47.466;8.992;2024-02-28T06:38:11;7.20;99.90
30678;DHT22;73746;47.466;8.992;2024-02-28T06:40:43;7.10;99.90
30678;DHT22;73746;47.466;8.992;2024-02-28T06:43:14;7.10;99.90
30678;DHT22;73746;47.466;8.992;2024-02-28T06:45:52;7.10;99.90
30678;DHT22;73746;47.466;8.992;2024-02-28T06:48:24;7.20;99.90
30678;DHT22;73746;47.466;8.992;2024-02-28T06:50:56;7.30;99.90
30678;DHT22;73746;47.466;8.992;2024-02-28T06:53:28;7.30;99.90
30678;DHT22;73746;47.466;8.992;2024-02-28T06:56:01;7.30;99.90
30678;DHT22;73746;47.466;8.992;2024-02-28T06:58:33;7.20;99.90
30678;DHT22;73746;47.466;8.992;2024-02-28T07:01:05;7.20;99.90
30678;DHT22;73746;47.466;8.992;2024-02-28T07:04:44;7.20;99.90
30678;DHT22;73746;47.466;8.992;2024-02-28T07:07:16;7.30;99.90
30678;DHT22;73746;47.466;8.992;2024-02-28T07:09:48;7.40;99.90
30678;DHT22;73746;47.466;8.992;2024-02-28T07:12:20;7.30;99.90
30678;DHT22;73746;47.466;8.992;2024-02-28T07:14:51;7.30;99.90
30678;DHT22;73746;47.466;8.992;2024-02-28T07:17:23;7.30;99.90
30678;DHT22;73746;47.466;8.992;2024-02-28T07:19:55;7.20;99.90
30678;DHT22;73746;47.466;8.992;2024-02-28T07:22:27;7.10;99.90
30678;DHT22;73746;47.466;8.992;2024-02-28T07:24:58;7.10;99.90
30678;DHT22;73746;47.466;8.992;2024-02-28T07:27:30;7.10;99.90
30678;DHT22;73746;47.466;8.992;2024-02-28T07:30:03;7.10;99.90
30678;DHT22;73746;47.466;8.992;2024-02-28T07:32:35;7.10;99.90
30678;DHT22;73746;47.466;8.992;2024-02-28T07:35:08;7.10;99.90
30678;DHT22;73746;47.466;8.992;2024-02-28T07:37:40;7.10;99.90
30678;DHT22;73746;47.466;8.992;2024-02-28T07:40:12;7.00;99.90
30678;DHT22;73746;47.466;8.992;2024-02-28T07:42:44;7.00;99.90
30678;DHT22;73746;47.466;8.992;2024-02-28T07:45:16;7.00;99.90
30678;DHT22;73746;47.466;8.992;2024-02-28T07:47:48;7.00;99.90
30678;DHT22;73746;47.466;8.992;2024-02-28T07:50:19;7.00;99.90
30678;DHT22;73746;47.466;8.992;2024-02-28T07:52:54;6.90;99.90
30678;DHT22;73746;47.466;8.992;2024-02-28T07:55:25;6.90;99.90
30678;DHT22;73746;47.466;8.992;2024-02-28T07:57:57;7.00;99.90
30678;DHT22;73746;47.466;8.992;2024-02-28T08:00:29;7.00;99.90
30678;DHT22;73746;47.466;8.992;2024-02-28T08:03:04;6.90;99.90
30678;DHT22;73746;47.466;8.992;2024-02-28T08:05:35;6.90;99.90
30678;DHT22;73746;47.466;8.992;2024-02-28T08:08:09;6.80;99.90
30678;DHT22;73746;47.466;8.992;2024-02-28T08:10:41;6.90;99.90
30678;DHT22;73746;47.466;8.992;2024-02-28T08:13:15;6.90;99.90
30678;DHT22;73746;47.466;8.992;2024-02-28T08:15:46;6.90;99.90
30678;DHT22;73746;47.466;8.992;2024-02-28T08:18:18;6.90;99.90
30678;DHT22;73746;47.466;8.992;2024-02-28T08:20:50;6.90;99.90
30678;DHT22;73746;47.466;8.992;2024-02-28T08:23:23;7.00;99.90
30678;DHT22;73746;47.466;8.992;2024-02-28T08:25:57;7.00;99.90
30678;DHT22;73746;47.466;8.992;2024-02-28T08:28:28;7.00;99.90
30678;DHT22;73746;47.466;8.992;2024-02-28T08:31:00;7.00;99.90
30678;DHT22;73746;47.466;8.992;2024-02-28T08:33:32;7.10;99.90
30678;DHT22;73746;47.466;8.992;2024-02-28T08:36:05;7.00;99.90
30678;DHT22;73746;47.466;8.992;2024-02-28T08:38:37;7.00;99.90
30678;DHT22;73746;47.466;8.992;2024-02-28T08:41:09;7.00;99.90
30678;DHT22;73746;47.466;8.992;2024-02-28T08:43:43;6.90;99.90
30678;DHT22;73746;47.466;8.992;2024-02-28T08:46:33;6.90;99.90
30678;DHT22;73746;47.466;8.992;2024-02-28T08:49:05;6.90;99.90
30678;DHT22;73746;47.466;8.992;2024-02-28T08:51:37;6.90;99.90
30678;DHT22;73746;47.466;8.992;2024-02-28T08:54:10;6.90;99.90
30678;DHT22;73746;47.466;8.992;2024-02-28T08:56:41;6.90;99.90
30678;DHT22;73746;47.466;8.992;2024-02-28T09:01:51;7.00;99.90
30678;DHT22;73746;47.466;8.992;2024-02-28T09:04:22;7.40;99.90
30678;DHT22;73746;47.466;8.992;2024-02-28T09:06:54;7.40;99.90
30678;DHT22;73746;47.466;8.992;2024-02-28T09:09:26;7.40;99.90
30678;DHT22;73746;47.466;8.992;2024-02-28T09:11:58;7.40;99.90
30678;DHT22;73746;47.466;8.992;2024-02-28T09:14:30;7.40;99.90
30678;DHT22;73746;47.466;8.992;2024-02-28T09:17:02;7.50;99.90
30678;DHT22;73746;47.466;8.992;2024-02-28T09:19:34;7.50;99.90
30678;DHT22;73746;47.466;8.992;2024-02-28T09:22:05;7.40;99.90
30678;DHT22;73746;47.466;8.992;2024-02-28T09:24:38;7.40;99.90
30678;DHT22;73746;47.466;8.992;2024-02-28T09:27:10;7.40;99.90
30678;DHT22;73746;47.466;8.992;2024-02-28T09:29:43;7.40;99.90
30678;DHT22;73746;47.466;8.992;2024-02-28T09:32:14;7.40;99.90
30678;DHT22;73746;47.466;8.992;2024-02-28T09:34:46;7.40;99.90
30678;DHT22;73746;47.466;8.992;2024-02-28T09:37:18;7.30;99.90
30678;DHT22;73746;47.466;8.992;2024-02-28T09:39:51;7.30;99.90
30678;DHT22;73746;47.466;8.992;2024-02-28T09:42:23;7.40;99.90
30678;DHT22;73746;47.466;8.992;2024-02-28T09:45:00;7.50;99.90
30678;DHT22;73746;47.466;8.992;2024-02-28T09:47:32;7.60;99.90
30678;DHT22;73746;47.466;8.992;2024-02-28T09:52:24;7.60;99.90
30678;DHT22;73746;47.466;8.992;2024-02-28T09:54:59;7.60;99.90
30678;DHT22;73746;47.466;8.992;2024-02-28T09:57:31;7.70;99.90
30678;DHT22;73746;47.466;8.992;2024-02-28T10:00:06;7.70;99.90
30678;DHT22;73746;47.466;8.992;2024-02-28T10:02:41;7.70;99.90
30678;DHT22;73746;47.466;8.992;2024-02-28T10:05:14;7.80;99.90
30678;DHT22;73746;47.466;8.992;2024-02-28T10:07:47;7.90;99.90
30678;DHT22;73746;47.466;8.992;2024-02-28T10:10:19;7.90;99.90
30678;DHT22;73746;47.466;8.992;2024-02-28T10:12:50;8.00;99.90
30678;DHT22;73746;47.466;8.992;2024-02-28T10:15:22;8.00;99.90
30678;DHT22;73746;47.466;8.992;2024-02-28T10:17:54;8.00;99.90
30678;DHT22;73746;47.466;8.992;2024-02-28T10:20:26;8.10;99.90
30678;DHT22;73746;47.466;8.992;2024-02-28T10:22:58;8.10;99.90
30678;DHT22;73746;47.466;8.992;2024-02-28T10:25:30;8.10;99.90
30678;DHT22;73746;47.466;8.992;2024-02-28T10:28:03;8.20;99.90
30678;DHT22;73746;47.466;8.992;2024-02-28T10:30:40;8.20;99.90
30678;DHT22;73746;47.466;8.992;2024-02-28T10:33:14;8.30;99.90
30678;DHT22;73746;47.466;8.992;2024-02-28T10:35:46;8.30;99.90
30678;DHT22;73746;47.466;8.992;2024-02-28T10:38:19;8.40;99.90
30678;DHT22;73746;47.466;8.992;2024-02-28T10:40:51;8.40;99.90
30678;DHT22;73746;47.466;8.992;2024-02-28T10:43:24;8.40;99.90
30678;DHT22;73746;47.466;8.992;2024-02-28T10:45:58;8.40;99.90
30678;DHT22;73746;47.466;8.992;2024-02-28T10:48:32;8.40;99.90
30678;DHT22;73746;47.466;8.992;2024-02-28T10:51:05;8.40;99.90
30678;DHT22;73746;47.466;8.992;2024-02-28T10:53:40;8.40;99.90
30678;DHT22;73746;47.466;8.992;2024-02-28T10:56:12;8.40;99.90
30678;DHT22;73746;47.466;8.992;2024-02-28T10:58:50;8.40;99.90
30678;DHT22;73746;47.466;8.992;2024-02-28T11:01:23;8.40;99.90
30678;DHT22;73746;47.466;8.992;2024-02-28T11:03:55;8.40;99.90
30678;DHT22;73746;47.466;8.992;2024-02-28T11:06:27;8.50;99.90
30678;DHT22;73746;47.466;8.992;2024-02-28T11:09:00;8.50;99.90
30678;DHT22;73746;47.466;8.992;2024-02-28T11:11:33;8.50;99.90
30678;DHT22;73746;47.466;8.992;2024-02-28T11:14:05;8.60;99.90
30678;DHT22;73746;47.466;8.992;2024-02-28T11:16:37;8.60;99.90
30678;DHT22;73746;47.466;8.992;2024-02-28T11:19:19;8.60;99.90
30678;DHT22;73746;47.466;8.992;2024-02-28T11:21:55;8.60;99.90
30678;DHT22;73746;47.466;8.992;2024-02-28T11:24:31;8.50;99.90
30678;DHT22;73746;47.466;8.992;2024-02-28T11:27:04;8.50;99.90
30678;DHT22;73746;47.466;8.992;2024-02-28T11:29:37;8.50;99.90
30678;DHT22;73746;47.466;8.992;2024-02-28T11:32:09;8.50;99.90
30678;DHT22;73746;47.466;8.992;2024-02-28T11:34:42;8.50;99.90
30678;DHT22;73746;47.466;8.992;2024-02-28T11:37:15;8.50;99.90
30678;DHT22;73746;47.466;8.992;2024-02-28T11:39:48;8.50;99.90
30678;DHT22;73746;47.466;8.992;2024-02-28T11:42:20;8.50;99.90
30678;DHT22;73746;47.466;8.992;2024-02-28T11:44:55;8.50;99.90
30678;DHT22;73746;47.466;8.992;2024-02-28T11:47:29;8.40;99.90
30678;DHT22;73746;47.466;8.992;2024-02-28T11:50:02;8.40;99.90
30678;DHT22;73746;47.466;8.992;2024-02-28T11:52:36;8.40;99.90
30678;DHT22;73746;47.466;8.992;2024-02-28T11:55:08;8.50;99.90
30678;DHT22;73746;47.466;8.992;2024-02-28T11:57:41;8.50;99.90
30678;DHT22;73746;47.466;8.992;2024-02-28T12:00:14;8.50;99.90
30678;DHT22;73746;47.466;8.992;2024-02-28T12:02:45;8.50;99.90
30678;DHT22;73746;47.466;8.992;2024-02-28T12:05:20;8.50;99.90
30678;DHT22;73746;47.466;8.992;2024-02-28T12:07:53;8.60;99.90
30678;DHT22;73746;47.466;8.992;2024-02-28T12:10:26;8.70;99.90
30678;DHT22;73746;47.466;8.992;2024-02-28T12:13:00;8.70;99.90
30678;DHT22;73746;47.466;8.992;2024-02-28T12:15:32;8.60;99.90
30678;DHT22;73746;47.466;8.992;2024-02-28T12:18:09;8.60;99.90
30678;DHT22;73746;47.466;8.992;2024-02-28T12:20:41;8.60;99.90
30678;DHT22;73746;47.466;8.992;2024-02-28T12:23:13;8.70;99.90
30678;DHT22;73746;47.466;8.992;2024-02-28T12:25:45;8.80;99.90
30678;DHT22;73746;47.466;8.992;2024-02-28T12:28:17;8.80;99.90
30678;DHT22;73746;47.466;8.992;2024-02-28T12:30:49;8.80;99.90
30678;DHT22;73746;47.466;8.992;2024-02-28T12:33:20;8.90;99.90
30678;DHT22;73746;47.466;8.992;2024-02-28T12:35:53;8.90;99.90
30678;DHT22;73746;47.466;8.992;2024-02-28T12:38:26;8.90;99.90
30678;DHT22;73746;47.466;8.992;2024-02-28T12:40:58;8.90;99.90
30678;DHT22;73746;47.466;8.992;2024-02-28T12:43:31;8.90;99.90
30678;DHT22;73746;47.466;8.992;2024-02-28T12:46:03;8.90;99.90
30678;DHT22;73746;47.466;8.992;2024-02-28T12:48:39;9.00;99.90
30678;DHT22;73746;47.466;8.992;2024-02-28T12:51:35;9.00;99.90
30678;DHT22;73746;47.466;8.992;2024-02-28T12:53:47;9.00;99.90
30678;DHT22;73746;47.466;8.992;2024-02-28T12:56:21;9.10;99.90
30678;DHT22;73746;47.466;8.992;2024-02-28T12:58:54;9.10;99.90
30678;DHT22;73746;47.466;8.992;2024-02-28T13:01:26;9.00;99.90
30678;DHT22;73746;47.466;8.992;2024-02-28T13:03:58;9.00;99.90
30678;DHT22;73746;47.466;8.992;2024-02-28T13:06:31;9.00;99.90
30678;DHT22;73746;47.466;8.992;2024-02-28T13:09:03;9.00;99.90
30678;DHT22;73746;47.466;8.992;2024-02-28T13:11:36;8.90;99.90
30678;DHT22;73746;47.466;8.992;2024-02-28T13:14:08;8.90;99.90
30678;DHT22;73746;47.466;8.992;2024-02-28T13:16:41;8.80;99.90
30678;DHT22;73746;47.466;8.992;2024-02-28T13:19:13;8.90;99.90
30678;DHT22;73746;47.466;8.992;2024-02-28T13:21:44;8.90;99.90
30678;DHT22;73746;47.466;8.992;2024-02-28T13:24:16;8.90;99.90
30678;DHT22;73746;47.466;8.992;2024-02-28T13:26:48;8.90;99.90
30678;DHT22;73746;47.466;8.992;2024-02-28T13:29:20;8.90;99.90
30678;DHT22;73746;47.466;8.992;2024-02-28T13:31:52;8.90;99.90
30678;DHT22;73746;47.466;8.992;2024-02-28T13:34:24;8.90;99.90
30678;DHT22;73746;47.466;8.992;2024-02-28T13:36:56;8.90;99.90
30678;DHT22;73746;47.466;8.992;2024-02-28T13:39:28;8.80;99.90
30678;DHT22;73746;47.466;8.992;2024-02-28T13:42:00;8.80;99.90
30678;DHT22;73746;47.466;8.992;2024-02-28T13:44:34;8.80;99.90
30678;DHT22;73746;47.466;8.992;2024-02-28T13:47:07;8.80;99.90
30678;DHT22;73746;47.466;8.992;2024-02-28T13:49:38;8.70;99.90
30678;DHT22;73746;47.466;8.992;2024-02-28T13:52:10;8.80;99.90
30678;DHT22;73746;47.466;8.992;2024-02-28T13:54:42;8.80;99.90
30678;DHT22;73746;47.466;8.992;2024-02-28T13:57:16;8.90;99.90
30678;DHT22;73746;47.466;8.992;2024-02-28T13:59:47;8.90;99.90
30678;DHT22;73746;47.466;8.992;2024-02-28T14:02:38;9.00;99.90
30678;DHT22;73746;47.466;8.992;2024-02-28T14:05:10;9.00;99.90
30678;DHT22;73746;47.466;8.992;2024-02-28T14:07:41;9.10;99.90
30678;DHT22;73746;47.466;8.992;2024-02-28T14:10:14;9.10;99.90
30678;DHT22;73746;47.466;8.992;2024-02-28T14:12:46;9.20;99.90
30678;DHT22;73746;47.466;8.992;2024-02-28T14:15:18;9.20;99.90
30678;DHT22;73746;47.466;8.992;2024-02-28T14:17:50;9.20;99.90
30678;DHT22;73746;47.466;8.992;2024-02-28T14:20:22;9.30;99.90
30678;DHT22;73746;47.466;8.992;2024-02-28T14:22:54;9.20;99.90
30678;DHT22;73746;47.466;8.992;2024-02-28T14:25:27;9.20;99.90
30678;DHT22;73746;47.466;8.992;2024-02-28T14:27:59;9.20;99.90
30678;DHT22;73746;47.466;8.992;2024-02-28T14:30:31;9.20;99.90
30678;DHT22;73746;47.466;8.992;2024-02-28T14:33:04;9.10;99.90
30678;DHT22;73746;47.466;8.992;2024-02-28T14:35:38;9.00;99.90
30678;DHT22;73746;47.466;8.992;2024-02-28T14:38:11;8.90;99.90
30678;DHT22;73746;47.466;8.992;2024-02-28T14:40:43;8.90;99.90
30678;DHT22;73746;47.466;8.992;2024-02-28T14:43:15;8.90;99.90
30678;DHT22;73746;47.466;8.992;2024-02-28T14:45:47;8.80;99.90
30678;DHT22;73746;47.466;8.992;2024-02-28T14:48:19;8.80;99.90
30678;DHT22;73746;47.466;8.992;2024-02-28T14:50:52;8.80;99.90
30678;DHT22;73746;47.466;8.992;2024-02-28T14:53:24;8.70;99.90
30678;DHT22;73746;47.466;8.992;2024-02-28T14:58:35;8.60;99.90
30678;DHT22;73746;47.466;8.992;2024-02-28T15:01:08;8.60;99.90
30678;DHT22;73746;47.466;8.992;2024-02-28T15:06:24;8.50;99.90
30678;DHT22;73746;47.466;8.992;2024-02-28T15:09:14;8.60;99.90
30678;DHT22;73746;47.466;8.992;2024-02-28T15:11:46;8.70;99.90
30678;DHT22;73746;47.466;8.992;2024-02-28T15:14:18;8.70;99.90
30678;DHT22;73746;47.466;8.992;2024-02-28T15:16:50;8.70;99.90
30678;DHT22;73746;47.466;8.992;2024-02-28T15:19:22;8.60;99.90
30678;DHT22;73746;47.466;8.992;2024-02-28T15:21:54;8.40;99.90
30678;DHT22;73746;47.466;8.992;2024-02-28T15:24:26;8.40;99.90
30678;DHT22;73746;47.466;8.992;2024-02-28T15:27:16;8.40;99.90
30678;DHT22;73746;47.466;8.992;2024-02-28T15:29:48;8.30;99.90
30678;DHT22;73746;47.466;8.992;2024-02-28T15:32:20;8.30;99.90
30678;DHT22;73746;47.466;8.992;2024-02-28T15:34:57;8.20;99.90
30678;DHT22;73746;47.466;8.992;2024-02-28T15:37:29;8.20;99.90
30678;DHT22;73746;47.466;8.992;2024-02-28T15:40:01;8.20;99.90
30678;DHT22;73746;47.466;8.992;2024-02-28T15:42:35;8.20;99.90
30678;DHT22;73746;47.466;8.992;2024-02-28T15:45:08;8.20;99.90
30678;DHT22;73746;47.466;8.992;2024-02-28T15:47:39;8.30;99.90
30678;DHT22;73746;47.466;8.992;2024-02-28T15:50:12;8.30;99.90
30678;DHT22;73746;47.466;8.992;2024-02-28T15:52:43;8.30;99.90
30678;DHT22;73746;47.466;8.992;2024-02-28T15:55:15;8.20;99.90
30678;DHT22;73746;47.466;8.992;2024-02-28T15:58:08;8.10;99.90
30678;DHT22;73746;47.466;8.992;2024-02-28T16:00:40;8.20;99.90
30678;DHT22;73746;47.466;8.992;2024-02-28T16:03:12;8.20;99.90
30678;DHT22;73746;47.466;8.992;2024-02-28T16:05:44;8.30;99.90
30678;DHT22;73746;47.466;8.992;2024-02-28T16:08:15;8.20;99.90
30678;DHT22;73746;47.466;8.992;2024-02-28T16:10:47;8.10;99.90
30678;DHT22;73746;47.466;8.992;2024-02-28T16:13:19;8.20;99.90
30678;DHT22;73746;47.466;8.992;2024-02-28T16:15:51;8.20;99.90
30678;DHT22;73746;47.466;8.992;2024-02-28T16:18:23;8.10;99.90
30678;DHT22;73746;47.466;8.992;2024-02-28T16:20:55;8.10;99.90
30678;DHT22;73746;47.466;8.992;2024-02-28T16:26:10;8.10;99.90
30678;DHT22;73746;47.466;8.992;2024-02-28T16:28:42;8.00;99.90
30678;DHT22;73746;47.466;8.992;2024-02-28T16:31:14;8.10;99.90
30678;DHT22;73746;47.466;8.992;2024-02-28T16:34:04;8.00;99.90
30678;DHT22;73746;47.466;8.992;2024-02-28T16:36:36;8.00;99.90
30678;DHT22;73746;47.466;8.992;2024-02-28T16:39:08;7.90;99.90
30678;DHT22;73746;47.466;8.992;2024-02-28T16:41:41;7.90;99.90
30678;DHT22;73746;47.466;8.992;2024-02-28T16:44:13;7.90;99.90